createdAt,value
2019-05-18T00:00:03.683Z,14.00
2019-05-18T00:02:35.388Z,14.20
2019-05-18T00:05:07.228Z,14.20
2019-05-18T00:07:37.928Z,14.30
2019-05-18T00:10:10.032Z,14.10
2019-05-18T00:12:41.004Z,13.90
2019-05-18T00:15:12.772Z,13.90
2019-05-18T00:17:44.335Z,13.80
2019-05-18T00:20:16.102Z,13.70
2019-05-18T00:22:47.110Z,13.60
2019-05-18T00:25:18.361Z,13.60
2019-05-18T00:27:50.640Z,13.40
2019-05-18T00:30:22.233Z,13.40
2019-05-18T00:32:53.450Z,13.30
2019-05-18T00:35:24.438Z,13.30
2019-05-18T00:37:55.976Z,13.30
2019-05-18T00:40:27.550Z,13.30
2019-05-18T00:42:59.386Z,13.20
2019-05-18T00:45:30.709Z,13.20
2019-05-18T00:48:02.399Z,13.30
2019-05-18T00:50:33.653Z,13.20
2019-05-18T00:53:04.668Z,13.20
2019-05-18T00:55:36.202Z,13.20
2019-05-18T00:58:07.516Z,13.20
2019-05-18T01:00:39.433Z,13.30
2019-05-18T01:03:09.868Z,13.30
2019-05-18T01:05:40.924Z,13.20
2019-05-18T01:08:12.537Z,13.00
2019-05-18T01:10:44.625Z,12.90
2019-05-18T01:13:15.260Z,12.80
2019-05-18T01:15:46.527Z,12.70
2019-05-18T01:18:17.497Z,12.60
2019-05-18T01:20:48.788Z,12.60
2019-05-18T01:23:19.762Z,12.50
2019-05-18T01:25:51.106Z,12.50
2019-05-18T01:28:22.115Z,12.50
2019-05-18T01:30:53.753Z,12.40
2019-05-18T01:33:24.425Z,12.40
2019-05-18T01:35:56.306Z,12.40
2019-05-18T01:38:27.560Z,12.40
2019-05-18T01:40:58.888Z,12.40
2019-05-18T01:43:30.030Z,12.20
2019-05-18T01:46:01.900Z,12.20
2019-05-18T01:48:33.580Z,12.10
2019-05-18T01:51:05.122Z,12.10
2019-05-18T01:53:36.384Z,12.10
2019-05-18T01:56:07.611Z,12.10
2019-05-18T01:58:38.836Z,12.00
2019-05-18T02:01:10.664Z,12.00
2019-05-18T02:03:42.234Z,12.00
2019-05-18T02:06:13.429Z,12.00
2019-05-18T02:08:45.164Z,12.00
2019-05-18T02:11:16.744Z,12.00
2019-05-18T02:13:48.325Z,12.00
2019-05-18T02:16:20.032Z,12.00
2019-05-18T02:18:51.290Z,12.10
2019-05-18T02:21:22.570Z,12.00
2019-05-18T02:23:54.174Z,12.00
2019-05-18T02:26:25.584Z,12.00
2019-05-18T02:28:57.138Z,11.90
2019-05-18T02:31:28.381Z,11.80
2019-05-18T02:33:59.343Z,11.80
2019-05-18T02:36:30.981Z,11.80
2019-05-18T02:39:03.800Z,11.80
2019-05-18T02:41:35.390Z,11.80
2019-05-18T02:44:06.444Z,11.80
2019-05-18T02:46:37.067Z,11.80
2019-05-18T02:49:08.352Z,11.90
2019-05-18T02:51:39.379Z,11.90
2019-05-18T02:54:10.622Z,11.90
2019-05-18T02:56:41.867Z,11.90
2019-05-18T02:59:13.164Z,11.80
2019-05-18T03:01:44.800Z,11.80
2019-05-18T03:04:16.746Z,11.80
2019-05-18T03:06:47.720Z,11.70
2019-05-18T03:09:19.568Z,11.70
2019-05-18T03:11:51.265Z,11.60
2019-05-18T03:14:22.904Z,11.60
2019-05-18T03:16:54.501Z,11.60
2019-05-18T03:19:25.930Z,11.60
2019-05-18T03:22:00.888Z,11.60
2019-05-18T03:24:30.576Z,11.50
2019-05-18T03:27:02.411Z,11.50
2019-05-18T03:29:33.746Z,11.40
2019-05-18T03:32:04.430Z,11.50
2019-05-18T03:34:35.721Z,11.50
2019-05-18T03:37:07.343Z,11.50
2019-05-18T03:39:39.054Z,11.40
2019-05-18T03:42:10.447Z,11.40
2019-05-18T03:44:41.763Z,11.40
2019-05-18T03:47:12.989Z,11.40
2019-05-18T03:49:44.567Z,11.30
2019-05-18T03:52:16.285Z,11.30
2019-05-18T03:54:47.837Z,11.30
2019-05-18T03:57:19.468Z,11.30
2019-05-18T03:59:51.281Z,11.40
2019-05-18T04:02:23.243Z,11.40
2019-05-18T04:04:54.531Z,11.40
2019-05-18T04:07:26.075Z,11.30
2019-05-18T04:09:57.222Z,11.30
2019-05-18T04:12:28.555Z,11.40
2019-05-18T04:15:00.082Z,11.40
2019-05-18T04:17:31.069Z,11.30
2019-05-18T04:20:04.040Z,11.30
2019-05-18T04:22:35.588Z,11.30
2019-05-18T04:25:06.659Z,11.30
2019-05-18T04:27:38.190Z,11.30
2019-05-18T04:30:10.245Z,11.40
2019-05-18T04:32:42.085Z,11.40
2019-05-18T04:35:13.478Z,11.50
2019-05-18T04:37:44.703Z,11.50
2019-05-18T04:40:16.369Z,11.50
2019-05-18T04:42:47.872Z,11.60
2019-05-18T04:45:19.238Z,11.60
2019-05-18T04:47:50.462Z,11.70
2019-05-18T04:50:22.342Z,11.70
2019-05-18T04:52:54.201Z,11.70
2019-05-18T04:55:25.873Z,11.80
2019-05-18T04:57:57.195Z,11.80
2019-05-18T05:00:28.424Z,11.80
2019-05-18T05:03:00.305Z,11.90
2019-05-18T05:05:31.964Z,11.90
2019-05-18T05:08:03.578Z,11.90
2019-05-18T05:10:35.564Z,11.90
2019-05-18T05:13:06.821Z,12.00
2019-05-18T05:15:37.769Z,12.00
2019-05-18T05:18:08.458Z,12.00
2019-05-18T05:20:39.812Z,12.10
2019-05-18T05:23:11.119Z,12.10
2019-05-18T05:25:42.334Z,12.20
2019-05-18T05:28:13.335Z,12.30
2019-05-18T05:30:45.246Z,12.30
2019-05-18T05:33:16.831Z,12.30
2019-05-18T05:35:48.111Z,12.40
2019-05-18T05:38:20.026Z,12.60
2019-05-18T05:40:51.383Z,12.90
2019-05-18T05:43:23.360Z,12.90
2019-05-18T05:45:54.924Z,12.80
2019-05-18T05:48:25.982Z,12.80
2019-05-18T05:50:57.588Z,12.80
2019-05-18T05:53:29.911Z,12.80
2019-05-18T05:56:00.653Z,12.90
2019-05-18T05:58:33.165Z,13.10
2019-05-18T06:01:05.456Z,13.10
2019-05-18T06:03:37.426Z,13.30
2019-05-18T06:06:08.392Z,13.20
2019-05-18T06:08:40.240Z,13.20
2019-05-18T06:11:11.505Z,13.30
2019-05-18T06:13:43.461Z,13.40
2019-05-18T06:16:15.193Z,13.50
2019-05-18T06:18:46.472Z,13.50
2019-05-18T06:21:18.327Z,13.70
2019-05-18T06:23:49.840Z,13.70
2019-05-18T06:26:24.165Z,13.80
2019-05-18T06:28:54.338Z,13.90
2019-05-18T06:31:26.310Z,14.00
2019-05-18T06:33:57.768Z,14.10
2019-05-18T06:36:29.724Z,14.30
2019-05-18T06:39:01.622Z,14.40
2019-05-18T06:41:33.287Z,14.40
2019-05-18T06:44:04.928Z,14.40
2019-05-18T06:46:36.442Z,14.30
2019-05-18T06:49:07.955Z,14.20
2019-05-18T06:51:39.850Z,14.60
2019-05-18T06:54:11.143Z,14.70
2019-05-18T06:56:42.770Z,14.70
2019-05-18T06:59:16.444Z,14.50
2019-05-18T07:01:47.907Z,14.70
2019-05-18T07:04:19.762Z,14.60
2019-05-18T07:06:51.055Z,14.60
2019-05-18T07:09:22.903Z,14.60
2019-05-18T07:11:56.104Z,15.00
2019-05-18T07:14:26.331Z,15.20
2019-05-18T07:16:57.716Z,15.30
2019-05-18T07:19:29.249Z,15.30
2019-05-18T07:22:01.228Z,15.40
2019-05-18T07:24:32.565Z,15.40
2019-05-18T07:27:04.542Z,15.20
2019-05-18T07:29:36.269Z,15.40
2019-05-18T07:32:07.236Z,15.40
2019-05-18T07:34:38.703Z,15.60
2019-05-18T07:37:10.766Z,16.10
2019-05-18T07:39:42.087Z,16.30
2019-05-18T07:42:13.546Z,16.50
2019-05-18T07:44:45.291Z,16.30
2019-05-18T07:47:16.627Z,16.70
2019-05-18T07:49:47.963Z,16.80
2019-05-18T07:52:19.844Z,16.60
2019-05-18T07:54:51.948Z,16.80
2019-05-18T07:57:23.773Z,16.90
2019-05-18T07:59:54.490Z,17.00
2019-05-18T08:02:26.046Z,16.60
2019-05-18T08:04:56.991Z,16.90
2019-05-18T08:07:28.565Z,16.90
2019-05-18T08:10:00.134Z,17.10
2019-05-18T08:12:31.050Z,17.20
2019-05-18T08:15:02.468Z,17.40
2019-05-18T08:17:33.454Z,17.10
2019-05-18T08:20:04.807Z,17.10
2019-05-18T08:22:36.708Z,17.20
2019-05-18T08:25:08.323Z,17.50
2019-05-18T08:27:40.456Z,17.20
2019-05-18T08:30:12.254Z,17.10
2019-05-18T08:32:44.135Z,17.50
2019-05-18T08:35:16.261Z,17.70
2019-05-18T08:37:47.587Z,17.90
2019-05-18T08:40:18.905Z,17.90
2019-05-18T08:42:50.503Z,17.70
2019-05-18T08:45:22.074Z,17.70
2019-05-18T08:47:53.395Z,17.60
2019-05-18T08:50:25.479Z,17.90
2019-05-18T08:52:57.377Z,17.60
2019-05-18T08:55:29.254Z,17.90
2019-05-18T08:58:00.833Z,18.20
2019-05-18T09:00:32.396Z,18.20
2019-05-18T09:03:04.005Z,18.40
2019-05-18T09:05:35.877Z,18.00
2019-05-18T09:08:07.574Z,17.90
2019-05-18T09:10:39.310Z,17.90
2019-05-18T09:13:10.308Z,18.00
2019-05-18T09:15:41.904Z,18.00
2019-05-18T09:18:13.434Z,18.20
2019-05-18T09:20:45.137Z,18.20
2019-05-18T09:23:16.707Z,18.40
2019-05-18T09:25:48.057Z,18.40
2019-05-18T09:28:19.516Z,18.40
2019-05-18T09:30:51.091Z,18.40
2019-05-18T09:33:22.408Z,18.50
2019-05-18T09:35:54.280Z,18.50
2019-05-18T09:38:25.841Z,18.50
2019-05-18T09:40:57.251Z,18.40
2019-05-18T09:43:28.807Z,18.60
2019-05-18T09:45:59.825Z,18.80
2019-05-18T09:48:31.436Z,18.80
2019-05-18T09:51:03.019Z,18.90
2019-05-18T09:53:33.750Z,19.10
2019-05-18T09:56:05.041Z,19.00
2019-05-18T09:58:36.316Z,18.90
2019-05-18T10:01:07.860Z,18.90
2019-05-18T10:03:39.451Z,19.40
2019-05-18T10:06:11.133Z,19.60
2019-05-18T10:08:42.200Z,20.00
2019-05-18T10:11:13.486Z,20.50
2019-05-18T10:13:45.069Z,21.50
2019-05-18T10:16:16.374Z,21.60
2019-05-18T10:18:59.450Z,21.80
2019-05-18T10:21:30.404Z,21.80
2019-05-18T10:24:01.667Z,21.80
2019-05-18T10:26:32.917Z,22.10
2019-05-18T10:29:03.925Z,22.70
2019-05-18T10:31:35.474Z,23.40
2019-05-18T10:34:07.060Z,22.90
2019-05-18T10:36:38.471Z,22.30
2019-05-18T10:39:10.079Z,22.60
2019-05-18T10:41:41.650Z,22.60
2019-05-18T10:44:15.857Z,23.10
2019-05-18T10:46:47.147Z,23.60
2019-05-18T10:49:18.520Z,22.90
2019-05-18T10:51:50.907Z,23.40
2019-05-18T10:54:21.964Z,23.50
2019-05-18T10:56:53.424Z,23.10
2019-05-18T10:59:25.001Z,23.40
2019-05-18T11:01:56.325Z,23.10
2019-05-18T11:04:27.881Z,23.40
2019-05-18T11:06:58.550Z,23.10
2019-05-18T11:09:29.419Z,23.20
2019-05-18T11:12:00.836Z,23.60
2019-05-18T11:14:32.408Z,23.70
2019-05-18T11:17:03.813Z,23.90
2019-05-18T11:19:35.677Z,24.20
2019-05-18T11:22:07.529Z,24.20
2019-05-18T11:24:39.080Z,24.10
2019-05-18T11:27:10.483Z,24.40
2019-05-18T11:29:42.038Z,24.00
2019-05-18T11:32:13.439Z,23.30
2019-05-18T11:34:45.296Z,23.40
2019-05-18T11:37:17.032Z,23.80
2019-05-18T11:39:47.992Z,23.60
2019-05-18T11:42:19.331Z,24.00
2019-05-18T11:44:51.128Z,23.90
2019-05-18T11:47:22.405Z,24.10
2019-05-18T11:49:53.752Z,24.10
2019-05-18T11:52:25.270Z,24.30
2019-05-18T11:54:56.318Z,24.60
2019-05-18T11:57:27.895Z,24.20
2019-05-18T11:59:59.806Z,24.00
2019-05-18T12:02:31.367Z,24.80
2019-05-18T12:05:03.238Z,24.90
2019-05-18T12:07:34.882Z,24.80
2019-05-18T12:10:06.785Z,25.20
2019-05-18T12:12:38.344Z,26.10
2019-05-18T12:15:10.485Z,26.60
2019-05-18T12:17:41.771Z,25.70
2019-05-18T12:20:14.330Z,24.70
2019-05-18T12:22:46.295Z,24.20
2019-05-18T12:25:18.066Z,23.90
2019-05-18T12:27:49.405Z,24.50
2019-05-18T12:30:21.570Z,25.00
2019-05-18T12:32:52.933Z,24.50
2019-05-18T12:35:24.677Z,24.00
2019-05-18T12:37:56.762Z,24.20
2019-05-18T12:40:28.107Z,24.20
2019-05-18T12:42:59.720Z,24.30
2019-05-18T12:45:31.587Z,24.80
2019-05-18T12:48:03.246Z,25.40
2019-05-18T12:50:34.822Z,25.90
2019-05-18T12:53:06.432Z,26.00
2019-05-18T12:55:38.287Z,26.60
2019-05-18T12:58:08.792Z,26.30
2019-05-18T13:00:40.362Z,26.50
2019-05-18T13:03:11.393Z,27.10
2019-05-18T13:05:43.114Z,27.60
2019-05-18T13:08:14.468Z,27.80
2019-05-18T13:10:46.306Z,27.60
2019-05-18T13:13:17.871Z,26.90
2019-05-18T13:15:49.467Z,27.00
2019-05-18T13:18:21.158Z,26.80
2019-05-18T13:20:52.726Z,27.10
2019-05-18T13:23:23.995Z,27.20
2019-05-18T13:25:55.660Z,26.90
2019-05-18T13:28:28.022Z,26.90
2019-05-18T13:30:59.292Z,26.60
2019-05-18T13:33:30.034Z,26.30
2019-05-18T13:36:01.588Z,26.30
2019-05-18T13:38:32.809Z,26.20
2019-05-18T13:41:04.070Z,26.10
2019-05-18T13:43:35.442Z,26.20
2019-05-18T13:46:07.143Z,26.90
2019-05-18T13:48:38.961Z,27.40
2019-05-18T13:51:10.341Z,27.10
2019-05-18T13:53:41.874Z,27.80
2019-05-18T13:56:13.448Z,28.10
2019-05-18T13:58:45.307Z,28.50
2019-05-18T14:01:16.741Z,28.40
2019-05-18T14:03:48.251Z,28.90
2019-05-18T14:06:19.670Z,28.60
2019-05-18T14:08:50.706Z,28.10
2019-05-18T14:11:23.020Z,28.00
2019-05-18T14:13:54.518Z,27.60
2019-05-18T14:16:25.629Z,26.80
2019-05-18T14:18:58.244Z,26.50
2019-05-18T14:21:30.043Z,25.80
2019-05-18T14:24:01.910Z,25.50
2019-05-18T14:26:33.629Z,25.50
2019-05-18T14:29:04.725Z,25.50
2019-05-18T14:31:36.301Z,25.70
2019-05-18T14:34:08.169Z,25.80
2019-05-18T14:36:40.049Z,26.20
2019-05-18T14:39:11.105Z,26.00
2019-05-18T14:41:42.694Z,25.90
2019-05-18T14:44:14.108Z,26.10
2019-05-18T14:46:45.657Z,26.00
2019-05-18T14:49:17.056Z,26.00
2019-05-18T14:51:48.445Z,25.80
2019-05-18T14:54:24.938Z,26.10
2019-05-18T14:56:53.191Z,26.40
2019-05-18T14:59:24.808Z,26.20
2019-05-18T15:01:56.382Z,26.40
2019-05-18T15:04:27.772Z,26.60
2019-05-18T15:06:59.077Z,26.50
2019-05-18T15:09:30.424Z,26.20
2019-05-18T15:12:01.405Z,25.90
2019-05-18T15:14:32.696Z,25.90
2019-05-18T15:17:04.194Z,25.60
2019-05-18T15:19:35.191Z,25.30
2019-05-18T15:22:06.179Z,25.10
2019-05-18T15:24:38.155Z,25.10
2019-05-18T15:27:09.772Z,25.40
2019-05-18T15:29:41.064Z,25.10
2019-05-18T15:32:12.937Z,24.90
2019-05-18T15:34:43.961Z,24.50
2019-05-18T15:37:14.897Z,24.60
2019-05-18T15:39:46.941Z,24.50
2019-05-18T15:42:18.273Z,24.30
2019-05-18T15:44:49.576Z,24.40
2019-05-18T15:47:21.570Z,24.20
2019-05-18T15:49:52.938Z,23.80
2019-05-18T15:52:23.985Z,23.60
2019-05-18T15:54:55.425Z,23.60
2019-05-18T15:57:26.850Z,23.30
2019-05-18T15:59:58.936Z,23.10
2019-05-18T16:02:30.840Z,22.50
2019-05-18T16:05:04.761Z,21.50
2019-05-18T16:07:36.557Z,20.70
2019-05-18T16:10:08.784Z,19.80
2019-05-18T16:12:40.799Z,19.10
2019-05-18T16:15:12.942Z,18.90
2019-05-18T16:17:44.882Z,18.60
2019-05-18T16:20:16.802Z,18.20
2019-05-18T16:22:47.968Z,17.90
2019-05-18T16:25:19.236Z,17.70
2019-05-18T16:27:50.708Z,17.20
2019-05-18T16:30:22.077Z,17.40
2019-05-18T16:32:53.435Z,17.70
2019-05-18T16:35:24.134Z,17.80
2019-05-18T16:37:56.528Z,17.80
2019-05-18T16:40:27.554Z,17.50
2019-05-18T16:43:00.315Z,17.40
2019-05-18T16:45:31.676Z,17.30
2019-05-18T16:48:03.728Z,17.30
2019-05-18T16:50:35.177Z,17.70
2019-05-18T16:53:06.545Z,17.80
2019-05-18T16:55:38.099Z,18.00
2019-05-18T16:58:10.046Z,17.90
2019-05-18T17:00:41.755Z,17.90
2019-05-18T17:03:13.365Z,17.90
2019-05-18T17:10:55.813Z,17.80
2019-05-18T17:13:28.169Z,17.70
2019-05-18T17:15:59.877Z,17.70
2019-05-18T17:18:52.740Z,17.60
2019-05-18T17:21:24.690Z,17.40
2019-05-18T17:23:56.721Z,17.30
2019-05-18T17:26:28.514Z,17.40
2019-05-18T17:29:01.899Z,17.20
2019-05-18T17:31:34.040Z,17.20
2019-05-18T17:34:05.385Z,17.30
2019-05-18T17:36:37.042Z,17.30
2019-05-18T17:39:09.447Z,17.00
2019-05-18T17:41:41.124Z,17.00
2019-05-18T17:44:12.427Z,17.10
2019-05-18T17:46:43.977Z,17.20
2019-05-18T17:49:26.445Z,17.30
2019-05-18T17:51:49.747Z,17.00
2019-05-18T17:54:22.378Z,16.90
2019-05-18T17:57:07.547Z,16.80
2019-05-18T17:59:27.909Z,16.70
2019-05-18T18:01:59.432Z,16.80
2019-05-18T18:04:32.180Z,17.00
2019-05-18T18:07:04.381Z,16.80
2019-05-18T18:09:36.269Z,16.70
2019-05-18T18:12:08.529Z,17.00
2019-05-18T18:14:39.842Z,17.10
2019-05-18T18:17:12.279Z,16.80
2019-05-18T18:19:43.617Z,16.60
2019-05-18T18:22:14.854Z,16.50
2019-05-18T18:24:46.728Z,16.30
2019-05-18T18:27:25.344Z,16.10
2019-05-18T18:29:52.312Z,16.10
2019-05-18T18:32:23.942Z,16.00
2019-05-18T18:34:55.916Z,15.90
2019-05-18T18:37:27.894Z,15.90
2019-05-18T18:40:00.196Z,15.70
2019-05-18T18:42:32.862Z,15.80
2019-05-18T18:45:04.737Z,15.60
2019-05-18T18:47:37.438Z,15.60
2019-05-18T18:50:09.670Z,15.50
2019-05-18T18:52:42.877Z,15.50
2019-05-18T18:55:14.834Z,15.40
2019-05-18T18:57:46.405Z,15.40
2019-05-18T19:00:19.410Z,15.30
2019-05-18T19:02:51.019Z,15.30
2019-05-18T19:05:22.596Z,15.50
2019-05-18T19:07:54.909Z,15.40
2019-05-18T19:10:26.376Z,15.50
2019-05-18T19:12:58.589Z,15.50
2019-05-18T19:15:30.468Z,15.40
2019-05-18T19:18:02.799Z,15.50
2019-05-18T19:20:35.264Z,15.40
2019-05-18T19:23:07.115Z,15.30
2019-05-18T19:25:39.328Z,15.20
2019-05-18T19:28:10.657Z,15.00
2019-05-18T19:30:42.203Z,14.90
2019-05-18T19:33:13.899Z,15.10
2019-05-18T19:35:45.674Z,15.30
2019-05-18T19:38:17.597Z,15.30
2019-05-18T19:40:49.431Z,15.40
2019-05-18T19:43:21.815Z,15.40
2019-05-18T19:45:53.266Z,15.30
2019-05-18T19:48:24.927Z,15.30
2019-05-18T19:50:57.181Z,15.30
2019-05-18T19:53:28.592Z,15.40
2019-05-18T19:56:00.019Z,15.20
2019-05-18T19:58:31.784Z,15.30
2019-05-18T20:01:03.808Z,15.30
2019-05-18T20:03:34.916Z,15.10
2019-05-18T20:06:07.537Z,15.00
2019-05-18T20:08:39.648Z,14.90
2019-05-18T20:11:11.335Z,15.10
2019-05-18T20:13:43.274Z,15.10
2019-05-18T20:16:14.617Z,15.00
2019-05-18T20:18:45.967Z,15.00
2019-05-18T20:21:17.907Z,14.80
2019-05-18T20:23:49.618Z,14.80
2019-05-18T20:26:21.345Z,14.90
2019-05-18T20:28:52.044Z,14.90
2019-05-18T20:31:22.736Z,14.90
2019-05-18T20:33:54.353Z,14.90
2019-05-18T20:36:25.795Z,14.80
2019-05-18T20:38:57.488Z,14.80
2019-05-18T20:41:28.655Z,14.80
2019-05-18T20:44:00.269Z,14.70
2019-05-18T20:46:31.550Z,14.70
2019-05-18T20:49:03.414Z,14.60
2019-05-18T20:51:34.172Z,14.70
2019-05-18T20:54:05.574Z,14.60
2019-05-18T20:56:37.436Z,14.60
2019-05-18T20:59:08.702Z,14.50
2019-05-18T21:01:39.785Z,14.50
2019-05-18T21:04:11.531Z,14.50
2019-05-18T21:06:45.527Z,14.50
2019-05-18T21:09:16.189Z,14.50
2019-05-18T21:11:47.329Z,14.40
2019-05-18T21:14:18.959Z,14.40
2019-05-18T21:16:50.312Z,14.50
2019-05-18T21:19:22.024Z,14.50
2019-05-18T21:21:54.166Z,14.50
2019-05-18T21:24:24.944Z,14.50
2019-05-18T21:26:56.723Z,14.50
2019-05-18T21:29:28.317Z,14.50
2019-05-18T21:31:59.745Z,14.50
2019-05-18T21:34:31.101Z,14.50
2019-05-18T21:37:03.000Z,14.50
2019-05-18T21:39:34.644Z,14.40
2019-05-18T21:42:06.406Z,14.40
2019-05-18T21:44:38.415Z,14.40
2019-05-18T21:47:09.349Z,14.40
2019-05-18T21:49:40.651Z,14.30
2019-05-18T21:52:12.272Z,14.30
2019-05-18T21:54:43.965Z,14.30
2019-05-18T21:57:15.288Z,14.40
2019-05-18T21:59:46.863Z,14.50
2019-05-18T22:02:18.683Z,14.50
2019-05-18T22:04:49.728Z,14.50
2019-05-18T22:07:21.645Z,14.40
2019-05-18T22:09:53.785Z,14.40
2019-05-18T22:12:25.267Z,14.40
2019-05-18T22:14:57.384Z,14.40
2019-05-18T22:17:28.802Z,14.50
2019-05-18T22:20:00.053Z,14.60
2019-05-18T22:22:31.603Z,14.60
2019-05-18T22:25:02.612Z,14.50
2019-05-18T22:27:34.842Z,14.40
2019-05-18T22:30:06.660Z,14.40
2019-05-18T22:32:38.059Z,14.50
2019-05-18T22:35:10.005Z,14.60
2019-05-18T22:37:41.178Z,14.40
2019-05-18T22:40:13.106Z,14.30
2019-05-18T22:42:45.400Z,14.40
2019-05-18T22:45:16.972Z,14.40
2019-05-18T22:47:48.369Z,14.50
2019-05-18T22:50:19.987Z,14.50
2019-05-18T22:52:51.840Z,14.40
2019-05-18T22:55:23.192Z,14.30
2019-05-18T22:57:55.165Z,14.20
2019-05-18T23:00:26.553Z,14.20
2019-05-18T23:02:58.323Z,14.20
2019-05-18T23:05:29.496Z,14.10
2019-05-18T23:08:01.148Z,14.20
2019-05-18T23:10:32.183Z,14.10
2019-05-18T23:13:03.038Z,14.10
2019-05-18T23:15:34.645Z,14.00
2019-05-18T23:18:05.997Z,14.00
2019-05-18T23:20:37.172Z,14.10
2019-05-18T23:23:08.234Z,14.00
2019-05-18T23:25:39.848Z,14.00
2019-05-18T23:28:11.252Z,14.00
2019-05-18T23:30:43.373Z,13.90
2019-05-18T23:33:14.315Z,13.90
2019-05-18T23:35:46.193Z,13.90
2019-05-18T23:38:17.180Z,13.90
2019-05-18T23:40:48.477Z,14.00
2019-05-18T23:43:20.081Z,14.00
2019-05-18T23:45:51.093Z,14.00
2019-05-18T23:48:22.940Z,14.00
2019-05-18T23:50:55.026Z,14.00
2019-05-18T23:53:25.756Z,14.00
2019-05-18T23:55:57.368Z,13.90
2019-05-18T23:58:29.152Z,13.90
